Korce, Albania
Current Conditions -  °F | °C
As of 4:00 PM on Sunday 23 Nov 2014 (Local Time) from LWOH Reporting Station
Clear Clear  
Wind Chill: 50°   Ceiling: Unl
Heat Index: 50°   Visibility: 6mi
Dew Point: 36°   Wind: 2mph
Humidity: 58%   Direction: 160°SSE
Pressure: 30.24"   Gusts: NA
Location:  40.62°N, 20.78°E
Report Text: LWOH 231400Z 16002KT CAVOK 10/02 Q1024
Loading
Personal Weather Stations






























Interactive Weather Map New forecast layout! Learn more

10-Day Weather Forecast

Advertisements
Track Severe Weather on mobile